sensor_id;sensor_type;location;lat;lon;timestamp;pressure;altitude;pressure_sealevel;temperature;humidity
39449;BME280;25151;45.566;9.382;2023-07-24T00:00:23;99520.63;;;28.13;53.43
39449;BME280;25151;45.566;9.382;2023-07-24T00:02:51;99520.34;;;28.11;53.47
39449;BME280;25151;45.566;9.382;2023-07-24T00:05:23;99519.84;;;28.12;53.14
39449;BME280;25151;45.566;9.382;2023-07-24T00:07:55;99523.44;;;28.13;53.33
39449;BME280;25151;45.566;9.382;2023-07-24T00:10:28;99523.97;;;28.11;53.24
39449;BME280;25151;45.566;9.382;2023-07-24T00:12:55;99523.97;;;28.11;53.30
39449;BME280;25151;45.566;9.382;2023-07-24T00:15:22;99533.25;;;28.12;53.09
39449;BME280;25151;45.566;9.382;2023-07-24T00:17:52;99532.50;;;28.17;53.51
39449;BME280;25151;45.566;9.382;2023-07-24T00:20:19;99524.75;;;28.12;53.67
39449;BME280;25151;45.566;9.382;2023-07-24T00:22:49;99523.44;;;28.13;53.51
39449;BME280;25151;45.566;9.382;2023-07-24T00:25:19;99512.13;;;28.13;53.47
39449;BME280;25151;45.566;9.382;2023-07-24T00:27:46;99510.28;;;28.10;53.40
39449;BME280;25151;45.566;9.382;2023-07-24T00:30:17;99514.19;;;28.12;53.62
39449;BME280;25151;45.566;9.382;2023-07-24T00:32:50;99509.28;;;28.13;53.22
39449;BME280;25151;45.566;9.382;2023-07-24T00:35:17;99506.44;;;28.13;53.75
39449;BME280;25151;45.566;9.382;2023-07-24T00:37:48;99506.97;;;28.11;53.39
39449;BME280;25151;45.566;9.382;2023-07-24T00:40:17;99499.22;;;28.12;53.47
39449;BME280;25151;45.566;9.382;2023-07-24T00:42:51;99489.16;;;28.11;53.52
39449;BME280;25151;45.566;9.382;2023-07-24T00:45:21;99504.13;;;28.17;53.45
39449;BME280;25151;45.566;9.382;2023-07-24T00:47:48;99501.31;;;28.17;53.82
39449;BME280;25151;45.566;9.382;2023-07-24T00:50:18;99489.97;;;28.11;53.74
39449;BME280;25151;45.566;9.382;2023-07-24T00:52:48;99487.91;;;28.12;53.45
39449;BME280;25151;45.566;9.382;2023-07-24T00:55:16;99496.41;;;28.12;53.40
39449;BME280;25151;45.566;9.382;2023-07-24T00:57:44;99492.00;;;28.11;53.76
39449;BME280;25151;45.566;9.382;2023-07-24T01:00:14;99502.59;;;28.16;53.52
39449;BME280;25151;45.566;9.382;2023-07-24T01:02:45;99493.28;;;28.10;53.40
39449;BME280;25151;45.566;9.382;2023-07-24T01:05:17;99494.81;;;28.11;53.72
39449;BME280;25151;45.566;9.382;2023-07-24T01:07:46;99480.16;;;28.12;53.56
39449;BME280;25151;45.566;9.382;2023-07-24T01:10:13;99485.56;;;28.10;53.55
39449;BME280;25151;45.566;9.382;2023-07-24T01:13:02;99498.47;;;28.17;53.46
39449;BME280;25151;45.566;9.382;2023-07-24T01:15:38;99491.25;;;28.16;53.86
39449;BME280;25151;45.566;9.382;2023-07-24T01:18:13;99487.91;;;28.12;53.88
39449;BME280;25151;45.566;9.382;2023-07-24T01:20:53;99495.63;;;28.11;53.67
39449;BME280;25151;45.566;9.382;2023-07-24T01:23:58;99502.59;;;28.16;54.09
39449;BME280;25151;45.566;9.382;2023-07-24T01:26:28;99496.13;;;28.10;53.62
39449;BME280;25151;45.566;9.382;2023-07-24T01:28:56;99498.94;;;28.10;53.61
39449;BME280;25151;45.566;9.382;2023-07-24T01:31:23;99494.81;;;28.11;53.58
39449;BME280;25151;45.566;9.382;2023-07-24T01:33:50;99484.28;;;28.11;53.90
39449;BME280;25151;45.566;9.382;2023-07-24T01:36:18;99482.22;;;28.12;53.63
39449;BME280;25151;45.566;9.382;2023-07-24T01:38:51;99482.72;;;28.10;53.62
39449;BME280;25151;45.566;9.382;2023-07-24T01:41:18;99485.06;;;28.12;54.02
39449;BME280;25151;45.566;9.382;2023-07-24T01:43:46;99483.50;;;28.11;54.18
39449;BME280;25151;45.566;9.382;2023-07-24T01:46:13;99485.84;;;28.12;54.06
39449;BME280;25151;45.566;9.382;2023-07-24T01:48:44;99477.81;;;28.11;53.88
39449;BME280;25151;45.566;9.382;2023-07-24T01:51:12;99467.78;;;28.10;53.74
39449;BME280;25151;45.566;9.382;2023-07-24T01:53:39;99465.22;;;28.12;54.26
39449;BME280;25151;45.566;9.382;2023-07-24T01:56:11;99454.38;;;28.10;53.76
39449;BME280;25151;45.566;9.382;2023-07-24T01:58:40;99460.81;;;28.11;54.10
39449;BME280;25151;45.566;9.382;2023-07-24T02:01:07;99458.78;;;28.17;53.99
39449;BME280;25151;45.566;9.382;2023-07-24T02:03:38;99440.97;;;28.11;53.99
39449;BME280;25151;45.566;9.382;2023-07-24T02:06:05;99442.53;;;28.12;53.79
39449;BME280;25151;45.566;9.382;2023-07-24T02:08:40;99441.00;;;28.16;54.33
39449;BME280;25151;45.566;9.382;2023-07-24T02:11:08;99445.91;;;28.16;54.35
39449;BME280;25151;45.566;9.382;2023-07-24T02:13:38;99430.94;;;28.10;54.00
39449;BME280;25151;45.566;9.382;2023-07-24T02:16:06;99432.50;;;28.16;54.09
39449;BME280;25151;45.566;9.382;2023-07-24T02:18:33;99423.47;;;28.12;54.09
39449;BME280;25151;45.566;9.382;2023-07-24T02:21:00;99417.03;;;28.12;54.39
39449;BME280;25151;45.566;9.382;2023-07-24T02:23:27;99405.94;;;28.08;53.96
39449;BME280;25151;45.566;9.382;2023-07-24T02:25:57;99406.22;;;28.16;53.98
39449;BME280;25151;45.566;9.382;2023-07-24T02:28:27;99401.03;;;28.09;54.12
39449;BME280;25151;45.566;9.382;2023-07-24T02:30:59;99409.06;;;28.16;53.88
39449;BME280;25151;45.566;9.382;2023-07-24T02:33:27;99401.28;;;28.11;54.32
39449;BME280;25151;45.566;9.382;2023-07-24T02:35:54;99411.88;;;28.16;54.36
39449;BME280;25151;45.566;9.382;2023-07-24T02:38:27;99409.06;;;28.16;54.08
39449;BME280;25151;45.566;9.382;2023-07-24T02:40:56;99404.13;;;28.11;54.38
39449;BME280;25151;45.566;9.382;2023-07-24T02:43:23;99392.53;;;28.09;54.25
39449;BME280;25151;45.566;9.382;2023-07-24T02:45:51;99382.75;;;28.10;54.03
39449;BME280;25151;45.566;9.382;2023-07-24T02:48:18;99387.13;;;28.11;54.11
39449;BME280;25151;45.566;9.382;2023-07-24T02:50:48;99398.47;;;28.11;54.14
39449;BME280;25151;45.566;9.382;2023-07-24T02:53:15;99392.03;;;28.10;54.53
39449;BME280;25151;45.566;9.382;2023-07-24T02:55:44;99406.22;;;28.16;54.25
39449;BME280;25151;45.566;9.382;2023-07-24T02:58:14;99395.63;;;28.11;54.05
39449;BME280;25151;45.566;9.382;2023-07-24T03:00:43;99388.44;;;28.15;54.36
39449;BME280;25151;45.566;9.382;2023-07-24T03:03:11;99386.09;;;28.08;54.35
39449;BME280;25151;45.566;9.382;2023-07-24T03:05:41;99419.59;;;28.10;54.61
39449;BME280;25151;45.566;9.382;2023-07-24T03:08:12;99438.13;;;28.11;54.67
39449;BME280;25151;45.566;9.382;2023-07-24T03:10:45;99448.22;;;28.17;54.37
39449;BME280;25151;45.566;9.382;2023-07-24T03:13:14;99445.91;;;28.16;54.67
39449;BME280;25151;45.566;9.382;2023-07-24T03:15:44;99447.16;;;28.09;54.20
39449;BME280;25151;45.566;9.382;2023-07-24T03:18:11;99439.16;;;27.97;54.29
39449;BME280;25151;45.566;9.382;2023-07-24T03:20:38;99425.69;;;27.80;54.27
39449;BME280;25151;45.566;9.382;2023-07-24T03:23:09;99428.00;;;27.76;53.72
39449;BME280;25151;45.566;9.382;2023-07-24T03:25:36;99431.38;;;27.80;53.81
39449;BME280;25151;45.566;9.382;2023-07-24T03:28:04;99402.91;;;27.63;53.95
39449;BME280;25151;45.566;9.382;2023-07-24T03:30:31;99397.78;;;27.62;53.49
39449;BME280;25151;45.566;9.382;2023-07-24T03:32:58;99391.59;;;27.58;53.70
39449;BME280;25151;45.566;9.382;2023-07-24T03:35:28;99415.06;;;27.64;53.21
39449;BME280;25151;45.566;9.382;2023-07-24T03:37:55;99389.50;;;27.53;53.26
39449;BME280;25151;45.566;9.382;2023-07-24T03:40:22;99404.44;;;27.59;53.15
39449;BME280;25151;45.566;9.382;2023-07-24T03:42:51;99389.81;;;27.60;53.47
39449;BME280;25151;45.566;9.382;2023-07-24T03:45:21;99374.06;;;27.54;53.42
39449;BME280;25151;45.566;9.382;2023-07-24T03:47:54;99372.75;;;27.49;53.65
39449;BME280;25151;45.566;9.382;2023-07-24T03:50:21;99380.25;;;27.52;53.60
39449;BME280;25151;45.566;9.382;2023-07-24T03:52:48;99378.19;;;27.53;53.44
39449;BME280;25151;45.566;9.382;2023-07-24T03:55:18;99395.69;;;27.57;53.77
39449;BME280;25151;45.566;9.382;2023-07-24T03:57:48;99396.94;;;27.50;53.74
39449;BME280;25151;45.566;9.382;2023-07-24T04:00:16;99406.97;;;27.45;53.75
39449;BME280;25151;45.566;9.382;2023-07-24T04:02:44;99407.72;;;27.40;53.97
39449;BME280;25151;45.566;9.382;2023-07-24T04:05:12;99408.22;;;27.39;53.63
39449;BME280;25151;45.566;9.382;2023-07-24T04:07:38;99415.69;;;27.36;54.21
39449;BME280;25151;45.566;9.382;2023-07-24T04:10:06;99407.44;;;27.38;53.92
39449;BME280;25151;45.566;9.382;2023-07-24T04:12:33;99432.19;;;27.43;53.90
39449;BME280;25151;45.566;9.382;2023-07-24T04:15:00;99416.94;;;27.35;53.74
39449;BME280;25151;45.566;9.382;2023-07-24T04:17:27;99430.34;;;27.35;53.94
39449;BME280;25151;45.566;9.382;2023-07-24T04:19:54;99428.81;;;27.39;53.69
39449;BME280;25151;45.566;9.382;2023-07-24T04:22:21;99425.44;;;27.35;54.09
39449;BME280;25151;45.566;9.382;2023-07-24T04:24:51;99437.53;;;27.36;53.85
39449;BME280;25151;45.566;9.382;2023-07-24T04:27:27;99451.97;;;27.38;54.03
39449;BME280;25151;45.566;9.382;2023-07-24T04:29:54;99446.56;;;27.34;54.20
39449;BME280;25151;45.566;9.382;2023-07-24T04:32:21;99448.59;;;27.28;54.08
39449;BME280;25151;45.566;9.382;2023-07-24T04:34:48;99451.13;;;27.26;54.31
39449;BME280;25151;45.566;9.382;2023-07-24T04:37:15;99451.69;;;27.30;54.16
39449;BME280;25151;45.566;9.382;2023-07-24T04:39:45;99452.69;;;27.27;53.88
39449;BME280;25151;45.566;9.382;2023-07-24T04:42:13;99465.81;;;27.25;54.39
39449;BME280;25151;45.566;9.382;2023-07-24T04:44:43;99480.75;;;27.31;54.25
39449;BME280;25151;45.566;9.382;2023-07-24T04:47:16;99505.22;;;27.34;54.27
39449;BME280;25151;45.566;9.382;2023-07-24T04:49:49;99548.47;;;27.34;54.08
39449;BME280;25151;45.566;9.382;2023-07-24T04:52:18;99572.44;;;27.39;53.89
39449;BME280;25151;45.566;9.382;2023-07-24T04:54:49;99569.59;;;27.39;53.95
39449;BME280;25151;45.566;9.382;2023-07-24T04:57:16;99518.44;;;27.11;54.09
39449;BME280;25151;45.566;9.382;2023-07-24T04:59:44;99469.94;;;26.97;54.35
39449;BME280;25151;45.566;9.382;2023-07-24T05:02:11;99435.69;;;26.90;54.29
39449;BME280;25151;45.566;9.382;2023-07-24T05:04:38;99418.16;;;26.86;54.65
39449;BME280;25151;45.566;9.382;2023-07-24T05:07:12;99388.88;;;26.89;55.06
39449;BME280;25151;45.566;9.382;2023-07-24T05:09:40;99334.06;;;26.86;54.73
39449;BME280;25151;45.566;9.382;2023-07-24T05:12:07;99303.28;;;27.00;55.00
39449;BME280;25151;45.566;9.382;2023-07-24T05:14:34;99278.56;;;26.94;55.53
39449;BME280;25151;45.566;9.382;2023-07-24T05:17:02;99265.22;;;27.01;55.73
39449;BME280;25151;45.566;9.382;2023-07-24T05:19:37;99277.50;;;26.86;55.43
39449;BME280;25151;45.566;9.382;2023-07-24T05:22:04;99273.28;;;26.65;56.09
39449;BME280;25151;45.566;9.382;2023-07-24T05:24:34;99272.75;;;26.66;56.11
39449;BME280;25151;45.566;9.382;2023-07-24T05:27:01;99275.59;;;26.72;55.66
39449;BME280;25151;45.566;9.382;2023-07-24T05:29:28;99302.13;;;26.80;55.67
39449;BME280;25151;45.566;9.382;2023-07-24T05:31:58;99309.38;;;26.87;55.51
39449;BME280;25151;45.566;9.382;2023-07-24T05:34:28;99311.97;;;26.90;54.94
39449;BME280;25151;45.566;9.382;2023-07-24T05:36:55;99323.34;;;27.02;54.54
39449;BME280;25151;45.566;9.382;2023-07-24T05:39:28;99328.53;;;27.09;54.51
39449;BME280;25151;45.566;9.382;2023-07-24T05:41:55;99308.44;;;27.07;54.71
39449;BME280;25151;45.566;9.382;2023-07-24T05:44:22;99286.50;;;26.90;54.49
39449;BME280;25151;45.566;9.382;2023-07-24T05:46:48;99283.63;;;26.79;54.51
39449;BME280;25151;45.566;9.382;2023-07-24T05:49:18;99289.50;;;26.70;54.50
39449;BME280;25151;45.566;9.382;2023-07-24T05:51:46;99303.19;;;26.88;54.76
39449;BME280;25151;45.566;9.382;2023-07-24T05:54:14;99295.22;;;26.81;54.62
39449;BME280;25151;45.566;9.382;2023-07-24T05:56:44;99297.28;;;26.81;54.70
39449;BME280;25151;45.566;9.382;2023-07-24T05:59:11;99320.47;;;26.96;54.23
39449;BME280;25151;45.566;9.382;2023-07-24T06:01:39;99294.94;;;26.79;54.46
39449;BME280;25151;45.566;9.382;2023-07-24T06:04:06;99308.06;;;26.82;54.51
39449;BME280;25151;45.566;9.382;2023-07-24T06:06:39;99299.03;;;26.78;54.27
39449;BME280;25151;45.566;9.382;2023-07-24T06:09:06;99308.84;;;26.88;54.17
39449;BME280;25151;45.566;9.382;2023-07-24T06:11:39;99329.41;;;26.83;54.09
39449;BME280;25151;45.566;9.382;2023-07-24T06:14:10;99341.19;;;26.76;53.82
39449;BME280;25151;45.566;9.382;2023-07-24T06:16:40;99376.47;;;26.81;54.09
39449;BME280;25151;45.566;9.382;2023-07-24T06:19:12;99419.28;;;27.00;53.82
39449;BME280;25151;45.566;9.382;2023-07-24T06:21:41;99450.72;;;27.07;53.42
39449;BME280;25151;45.566;9.382;2023-07-24T06:24:13;99470.75;;;27.04;53.26
39449;BME280;25151;45.566;9.382;2023-07-24T06:26:40;99479.25;;;27.04;53.13
39449;BME280;25151;45.566;9.382;2023-07-24T06:29:08;99508.66;;;27.12;52.99
39449;BME280;25151;45.566;9.382;2023-07-24T06:31:36;99484.41;;;27.05;53.33
39449;BME280;25151;45.566;9.382;2023-07-24T06:34:09;99471.88;;;27.12;52.83
39449;BME280;25151;45.566;9.382;2023-07-24T06:36:41;99437.91;;;27.12;52.95
39449;BME280;25151;45.566;9.382;2023-07-24T06:39:11;99382.38;;;27.20;52.91
39449;BME280;25151;45.566;9.382;2023-07-24T06:41:43;99336.63;;;27.27;52.77
39449;BME280;25151;45.566;9.382;2023-07-24T06:44:16;99245.28;;;27.27;52.55
39449;BME280;25151;45.566;9.382;2023-07-24T06:46:43;99296.50;;;27.34;52.70
39449;BME280;25151;45.566;9.382;2023-07-24T06:49:10;99310.13;;;27.30;52.64
39449;BME280;25151;45.566;9.382;2023-07-24T06:51:40;99317.63;;;27.33;52.76
39449;BME280;25151;45.566;9.382;2023-07-24T06:54:09;99343.63;;;27.43;52.64
39449;BME280;25151;45.566;9.382;2023-07-24T06:56:39;99342.34;;;27.38;52.34
39449;BME280;25151;45.566;9.382;2023-07-24T06:59:09;99340.56;;;27.41;52.34
39449;BME280;25151;45.566;9.382;2023-07-24T07:01:39;99338.50;;;27.41;52.63
39449;BME280;25151;45.566;9.382;2023-07-24T07:04:12;99358.09;;;27.51;52.26
39449;BME280;25151;45.566;9.382;2023-07-24T07:06:49;99348.56;;;27.48;52.51
39449;BME280;25151;45.566;9.382;2023-07-24T07:09:22;99334.38;;;27.42;52.30
39449;BME280;25151;45.566;9.382;2023-07-24T07:11:55;99356.06;;;27.57;52.33
39449;BME280;25151;45.566;9.382;2023-07-24T07:14:25;99349.88;;;27.53;52.59
39449;BME280;25151;45.566;9.382;2023-07-24T07:16:58;99347.81;;;27.59;52.43
39449;BME280;25151;45.566;9.382;2023-07-24T07:19:32;99299.66;;;27.53;52.42
39449;BME280;25151;45.566;9.382;2023-07-24T07:22:02;99262.31;;;27.55;52.46
39449;BME280;25151;45.566;9.382;2023-07-24T07:24:36;99268.00;;;27.55;52.58
39449;BME280;25151;45.566;9.382;2023-07-24T07:27:03;99371.00;;;27.57;53.01
39449;BME280;25151;45.566;9.382;2023-07-24T07:29:34;99566.72;;;27.65;52.51
39449;BME280;25151;45.566;9.382;2023-07-24T07:32:01;99672.72;;;27.58;52.85
39449;BME280;25151;45.566;9.382;2023-07-24T07:34:31;99552.00;;;27.61;53.07
39449;BME280;25151;45.566;9.382;2023-07-24T07:36:57;99332.34;;;27.60;52.60
39449;BME280;25151;45.566;9.382;2023-07-24T07:39:25;99336.25;;;27.62;53.24
39449;BME280;25151;45.566;9.382;2023-07-24T07:41:53;99361.75;;;27.68;53.01
39449;BME280;25151;45.566;9.382;2023-07-24T07:44:22;99334.19;;;27.63;52.85
39449;BME280;25151;45.566;9.382;2023-07-24T07:46:51;99319.53;;;27.64;52.98
39449;BME280;25151;45.566;9.382;2023-07-24T07:49:18;99349.38;;;27.65;53.34
39449;BME280;25151;45.566;9.382;2023-07-24T07:51:45;99360.19;;;27.67;52.92
39449;BME280;25151;45.566;9.382;2023-07-24T07:54:13;99392.66;;;27.66;52.95
39449;BME280;25151;45.566;9.382;2023-07-24T07:56:46;99422.06;;;27.74;53.40
39449;BME280;25151;45.566;9.382;2023-07-24T07:59:18;99420.22;;;27.71;53.43
39449;BME280;25151;45.566;9.382;2023-07-24T08:01:46;99416.38;;;27.74;53.08
39449;BME280;25151;45.566;9.382;2023-07-24T08:04:19;99382.84;;;27.67;53.18
39449;BME280;25151;45.566;9.382;2023-07-24T08:06:50;99349.16;;;27.69;53.29
39449;BME280;25151;45.566;9.382;2023-07-24T08:09:20;99339.38;;;27.76;53.52
39449;BME280;25151;45.566;9.382;2023-07-24T08:11:53;99323.69;;;27.75;53.71
39449;BME280;25151;45.566;9.382;2023-07-24T08:14:26;99344.56;;;27.77;53.76
39449;BME280;25151;45.566;9.382;2023-07-24T08:16:56;99413.28;;;27.72;53.53
39449;BME280;25151;45.566;9.382;2023-07-24T08:19:30;99547.47;;;27.75;53.53
39449;BME280;25151;45.566;9.382;2023-07-24T08:21:58;99665.69;;;27.74;53.60
39449;BME280;25151;45.566;9.382;2023-07-24T08:24:27;99726.00;;;27.80;53.40
39449;BME280;25151;45.566;9.382;2023-07-24T08:27:01;99655.19;;;27.80;53.47
39449;BME280;25151;45.566;9.382;2023-07-24T08:29:31;99489.56;;;27.81;53.63
39449;BME280;25151;45.566;9.382;2023-07-24T08:31:59;99394.53;;;27.80;53.60
39449;BME280;25151;45.566;9.382;2023-07-24T08:34:29;99376.78;;;27.80;53.64
39449;BME280;25151;45.566;9.382;2023-07-24T08:37:04;99375.44;;;27.75;53.74
39449;BME280;25151;45.566;9.382;2023-07-24T08:39:32;99382.69;;;27.82;53.76
39449;BME280;25151;45.566;9.382;2023-07-24T08:42:11;99379.84;;;27.76;53.75
39449;BME280;25151;45.566;9.382;2023-07-24T08:44:38;99384.22;;;27.77;53.72
39449;BME280;25151;45.566;9.382;2023-07-24T08:47:11;99374.19;;;27.76;53.80
39449;BME280;25151;45.566;9.382;2023-07-24T08:49:42;99371.63;;;27.84;54.15
39449;BME280;25151;45.566;9.382;2023-07-24T08:52:13;99386.56;;;27.84;53.70
39449;BME280;25151;45.566;9.382;2023-07-24T08:54:39;99372.41;;;27.84;54.02
39449;BME280;25151;45.566;9.382;2023-07-24T08:57:12;99358.22;;;27.84;53.93
39449;BME280;25151;45.566;9.382;2023-07-24T08:59:39;99362.59;;;27.85;53.99
39449;BME280;25151;45.566;9.382;2023-07-24T09:02:08;99368.00;;;27.83;53.67
39449;BME280;25151;45.566;9.382;2023-07-24T09:04:37;99383.44;;;27.82;54.02
39449;BME280;25151;45.566;9.382;2023-07-24T09:07:09;99383.22;;;27.80;54.07
39449;BME280;25151;45.566;9.382;2023-07-24T09:09:40;99392.75;;;27.88;54.13
39449;BME280;25151;45.566;9.382;2023-07-24T09:12:13;99394.03;;;27.87;54.18
39449;BME280;25151;45.566;9.382;2023-07-24T09:14:46;99391.72;;;27.80;54.08
39449;BME280;25151;45.566;9.382;2023-07-24T09:17:16;99420.31;;;27.88;53.90
39449;BME280;25151;45.566;9.382;2023-07-24T09:19:45;99446.59;;;27.88;53.96
39449;BME280;25151;45.566;9.382;2023-07-24T09:22:15;99443.75;;;27.88;53.74
39449;BME280;25151;45.566;9.382;2023-07-24T09:24:57;99415.41;;;27.88;54.16
39449;BME280;25151;45.566;9.382;2023-07-24T09:27:32;99399.16;;;27.83;53.85
39449;BME280;25151;45.566;9.382;2023-07-24T09:30:11;99408.47;;;27.84;53.93
39449;BME280;25151;45.566;9.382;2023-07-24T09:32:39;99388.59;;;27.78;54.09
39449;BME280;25151;45.566;9.382;2023-07-24T09:35:20;99384.75;;;27.87;54.13
39449;BME280;25151;45.566;9.382;2023-07-24T09:38:03;99388.63;;;27.89;54.18
39449;BME280;25151;45.566;9.382;2023-07-24T09:40:48;99389.13;;;27.82;53.97
39449;BME280;25151;45.566;9.382;2023-07-24T09:43:27;99364.66;;;27.85;53.78
39449;BME280;25151;45.566;9.382;2023-07-24T09:45:58;99334.00;;;27.83;54.07
39449;BME280;25151;45.566;9.382;2023-07-24T09:48:26;99329.66;;;27.88;54.16
39449;BME280;25151;45.566;9.382;2023-07-24T09:50:59;99317.28;;;27.85;54.15
39449;BME280;25151;45.566;9.382;2023-07-24T09:56:40;99303.09;;;27.85;53.73
39449;BME280;25151;45.566;9.382;2023-07-24T09:59:12;99304.66;;;27.86;53.88
39449;BME280;25151;45.566;9.382;2023-07-24T10:01:51;99309.81;;;27.93;54.21
39449;BME280;25151;45.566;9.382;2023-07-24T10:04:25;99304.16;;;27.93;53.88
39449;BME280;25151;45.566;9.382;2023-07-24T10:06:56;99285.59;;;27.92;53.71
39449;BME280;25151;45.566;9.382;2023-07-24T10:09:29;99260.84;;;27.87;53.83
39449;BME280;25151;45.566;9.382;2023-07-24T10:11:57;99269.38;;;27.93;53.83
39449;BME280;25151;45.566;9.382;2023-07-24T10:14:32;99269.38;;;27.93;53.78
39449;BME280;25151;45.566;9.382;2023-07-24T10:16:59;99288.94;;;27.91;54.33
39449;BME280;25151;45.566;9.382;2023-07-24T10:19:39;99277.34;;;27.83;53.81
39449;BME280;25151;45.566;9.382;2023-07-24T10:22:09;99290.25;;;27.84;54.09
39449;BME280;25151;45.566;9.382;2023-07-24T10:24:50;99297.97;;;27.89;53.95
39449;BME280;25151;45.566;9.382;2023-07-24T10:27:23;99302.84;;;27.83;53.84
39449;BME280;25151;45.566;9.382;2023-07-24T10:30:08;99284.50;;;27.67;53.58
39449;BME280;25151;45.566;9.382;2023-07-24T10:32:49;99288.09;;;27.57;53.60
39449;BME280;25151;45.566;9.382;2023-07-24T10:35:23;99292.47;;;27.58;53.41
39449;BME280;25151;45.566;9.382;2023-07-24T10:38:01;99269.56;;;27.61;52.70
39449;BME280;25151;45.566;9.382;2023-07-24T10:40:30;99269.03;;;27.63;52.91
39449;BME280;25151;45.566;9.382;2023-07-24T10:43:10;99254.63;;;27.61;52.34
39449;BME280;25151;45.566;9.382;2023-07-24T10:45:58;99235.03;;;27.52;52.67
39449;BME280;25151;45.566;9.382;2023-07-24T10:48:36;99237.63;;;27.55;52.76
39449;BME280;25151;45.566;9.382;2023-07-24T10:51:15;99258.47;;;27.63;52.48
39449;BME280;25151;45.566;9.382;2023-07-24T10:53:48;99262.84;;;27.59;52.57
39449;BME280;25151;45.566;9.382;2023-07-24T10:56:24;99256.69;;;27.66;52.91
39449;BME280;25151;45.566;9.382;2023-07-24T10:59:04;99249.25;;;27.74;52.30
39449;BME280;25151;45.566;9.382;2023-07-24T11:01:35;99239.75;;;27.77;52.27
39449;BME280;25151;45.566;9.382;2023-07-24T11:04:10;99218.06;;;27.63;52.24
39449;BME280;25151;45.566;9.382;2023-07-24T11:06:42;99233.81;;;27.81;52.68
39449;BME280;25151;45.566;9.382;2023-07-24T11:09:16;99236.13;;;27.82;52.45
39449;BME280;25151;45.566;9.382;2023-07-24T11:11:45;99225.06;;;27.79;52.67
39449;BME280;25151;45.566;9.382;2023-07-24T11:14:17;99229.47;;;27.80;52.70
39449;BME280;25151;45.566;9.382;2023-07-24T11:16:53;99233.81;;;27.86;52.41
39449;BME280;25151;45.566;9.382;2023-07-24T11:19:28;99209.63;;;27.80;52.86
39449;BME280;25151;45.566;9.382;2023-07-24T11:22:01;99193.91;;;27.90;52.91
39449;BME280;25151;45.566;9.382;2023-07-24T11:24:32;99181.78;;;27.89;52.83
39449;BME280;25151;45.566;9.382;2023-07-24T11:27:15;99154.50;;;27.86;52.47
39449;BME280;25151;45.566;9.382;2023-07-24T11:29:51;99126.19;;;27.81;52.78
39449;BME280;25151;45.566;9.382;2023-07-24T11:32:25;99139.03;;;27.93;53.04
39449;BME280;25151;45.566;9.382;2023-07-24T11:35:00;99132.59;;;27.92;53.03
39449;BME280;25151;45.566;9.382;2023-07-24T11:37:30;99109.94;;;27.92;53.08
39449;BME280;25151;45.566;9.382;2023-07-24T11:39:58;99071.53;;;27.91;52.81
39449;BME280;25151;45.566;9.382;2023-07-24T11:42:47;99002.81;;;27.85;53.13
39449;BME280;25151;45.566;9.382;2023-07-24T11:45:20;98936.09;;;27.90;52.78
39449;BME280;25151;45.566;9.382;2023-07-24T11:50:45;98789.53;;;27.90;52.91
39449;BME280;25151;45.566;9.382;2023-07-24T11:53:24;98683.94;;;27.90;52.88
39449;BME280;25151;45.566;9.382;2023-07-24T11:55:58;98839.75;;;27.90;53.36
39449;BME280;25151;45.566;9.382;2023-07-24T11:58:31;99176.66;;;27.93;52.91
39449;BME280;25151;45.566;9.382;2023-07-24T12:01:03;99323.19;;;27.87;53.08
39449;BME280;25151;45.566;9.382;2023-07-24T12:03:37;99383.50;;;27.93;53.43
39449;BME280;25151;45.566;9.382;2023-07-24T12:16:11;99376.78;;;27.85;53.49
39449;BME280;25151;45.566;9.382;2023-07-24T12:18:43;99417.50;;;27.93;53.68
39449;BME280;25151;45.566;9.382;2023-07-24T12:21:19;99454.31;;;27.93;53.07
39449;BME280;25151;45.566;9.382;2023-07-24T12:23:50;99454.84;;;27.92;53.57
39449;BME280;25151;45.566;9.382;2023-07-24T12:26:23;99401.25;;;27.88;53.26
39449;BME280;25151;45.566;9.382;2023-07-24T12:28:57;99323.19;;;27.87;53.75
39449;BME280;25151;45.566;9.382;2023-07-24T12:31:33;99310.84;;;27.90;53.24
39449;BME280;25151;45.566;9.382;2023-07-24T12:34:03;99338.69;;;27.92;53.20
39449;BME280;25151;45.566;9.382;2023-07-24T12:36:38;99340.19;;;27.87;53.36
39449;BME280;25151;45.566;9.382;2023-07-24T12:39:08;99283.53;;;27.87;53.33
39449;BME280;25151;45.566;9.382;2023-07-24T12:41:35;99240.78;;;27.85;53.45
39449;BME280;25151;45.566;9.382;2023-07-24T12:44:06;99247.97;;;27.86;53.90
39449;BME280;25151;45.566;9.382;2023-07-24T12:46:34;99258.53;;;27.91;53.85
39449;BME280;25151;45.566;9.382;2023-07-24T12:49:02;99278.38;;;27.91;53.37
39449;BME280;25151;45.566;9.382;2023-07-24T12:51:31;99290.50;;;27.92;53.85
39449;BME280;25151;45.566;9.382;2023-07-24T12:54:04;99311.09;;;27.92;53.46
39449;BME280;25151;45.566;9.382;2023-07-24T12:56:39;99319.63;;;27.92;53.73
39449;BME280;25151;45.566;9.382;2023-07-24T12:59:08;99291.25;;;27.87;53.42
39449;BME280;25151;45.566;9.382;2023-07-24T13:01:35;99262.66;;;27.90;53.92
39449;BME280;25151;45.566;9.382;2023-07-24T13:04:02;99230.22;;;27.91;53.81
39449;BME280;25151;45.566;9.382;2023-07-24T13:06:30;99208.84;;;27.90;53.53
39449;BME280;25151;45.566;9.382;2023-07-24T13:08:58;99145.47;;;27.82;53.54
39449;BME280;25151;45.566;9.382;2023-07-24T13:11:26;99093.47;;;27.85;54.00
39449;BME280;25151;45.566;9.382;2023-07-24T13:13:56;99053.53;;;27.83;53.75
39449;BME280;25151;45.566;9.382;2023-07-24T13:16:23;99061.25;;;27.83;53.79
39449;BME280;25151;45.566;9.382;2023-07-24T13:18:52;99100.41;;;27.84;53.60
39449;BME280;25151;45.566;9.382;2023-07-24T13:21:19;99144.44;;;27.91;53.82
39449;BME280;25151;45.566;9.382;2023-07-24T13:23:46;99149.84;;;27.83;53.84
39449;BME280;25151;45.566;9.382;2023-07-24T13:26:15;99159.38;;;27.91;54.04
39449;BME280;25151;45.566;9.382;2023-07-24T13:28:48;99196.75;;;27.84;54.03
39449;BME280;25151;45.566;9.382;2023-07-24T13:31:19;99231.00;;;27.86;53.76
39449;BME280;25151;45.566;9.382;2023-07-24T13:33:45;99222.50;;;27.92;53.72